createdAt,value
2023-05-18T00:00:14.877Z,99.90
2023-05-18T00:05:19.312Z,99.90
2023-05-18T00:10:21.282Z,99.90
2023-05-18T00:15:23.129Z,99.90
2023-05-18T00:20:26.701Z,99.90
2023-05-18T00:25:28.683Z,99.90
2023-05-18T00:30:30.658Z,99.90
2023-05-18T00:35:32.626Z,99.90
2023-05-18T00:40:34.646Z,99.90
2023-05-18T00:45:36.523Z,99.90
2023-05-18T00:50:38.527Z,99.90
2023-05-18T00:55:40.460Z,99.90
2023-05-18T01:00:44.844Z,99.90
2023-05-18T01:05:50.056Z,99.90
2023-05-18T01:11:27.681Z,99.90
2023-05-18T01:16:40.611Z,99.90
2023-05-18T01:22:22.052Z,99.90
2023-05-18T01:27:25.681Z,99.90
2023-05-18T01:32:27.439Z,99.90
2023-05-18T01:37:29.171Z,99.90
2023-05-18T01:42:33.193Z,99.90
2023-05-18T01:47:37.325Z,99.90
2023-05-18T01:52:52.956Z,99.90
2023-05-18T01:57:55.742Z,99.90
2023-05-18T02:02:58.178Z,99.90
2023-05-18T02:08:00.056Z,99.90
2023-05-18T02:13:01.962Z,99.90
2023-05-18T02:18:03.841Z,99.90
2023-05-18T02:23:05.582Z,99.90
2023-05-18T02:28:07.321Z,99.90
2023-05-18T02:33:09.270Z,99.90
2023-05-18T02:38:11.133Z,99.90
2023-05-18T02:43:13.660Z,99.90
2023-05-18T02:48:15.582Z,99.90
2023-05-18T02:53:17.328Z,99.90
2023-05-18T02:58:20.411Z,99.90
2023-05-18T03:03:23.850Z,99.90
2023-05-18T03:08:27.087Z,99.90
2023-05-18T03:13:29.001Z,99.90
2023-05-18T03:18:30.760Z,99.90
2023-05-18T03:23:32.563Z,99.90
2023-05-18T03:28:34.311Z,99.90
2023-05-18T03:33:36.113Z,99.90
2023-05-18T03:38:37.856Z,99.90
2023-05-18T03:43:39.569Z,99.90
2023-05-18T03:48:41.301Z,99.90
2023-05-18T03:53:43.051Z,99.90
2023-05-18T03:58:45.592Z,99.90
2023-05-18T04:03:47.539Z,99.90
2023-05-18T04:08:50.219Z,99.90
2023-05-18T04:13:52.077Z,99.90
2023-05-18T04:18:54.092Z,99.90
2023-05-18T04:23:55.864Z,99.90
2023-05-18T04:29:00.310Z,99.90
2023-05-18T04:34:02.177Z,99.90
2023-05-18T04:39:07.737Z,99.90
2023-05-18T04:44:09.590Z,99.90
2023-05-18T04:49:11.737Z,99.90
2023-05-18T04:54:13.872Z,99.90
2023-05-18T04:59:16.036Z,99.90
2023-05-18T05:04:17.761Z,99.90
2023-05-18T05:09:19.545Z,99.90
2023-05-18T05:14:21.264Z,99.90
2023-05-18T05:19:23.078Z,99.90
2023-05-18T05:24:24.933Z,99.90
2023-05-18T05:29:27.966Z,99.90
2023-05-18T05:34:29.678Z,99.90
2023-05-18T05:39:31.397Z,99.90
2023-05-18T05:44:33.307Z,99.90
2023-05-18T05:49:35.218Z,99.90
2023-05-18T05:54:37.345Z,99.90
2023-05-18T05:59:39.085Z,99.90
2023-05-18T06:04:41.347Z,99.90
2023-05-18T06:09:43.058Z,99.90
2023-05-18T06:14:44.937Z,99.90
2023-05-18T06:19:46.626Z,99.90
2023-05-18T06:24:48.398Z,99.90
2023-05-18T06:29:50.241Z,99.90
2023-05-18T06:34:52.679Z,99.90
2023-05-18T06:39:54.455Z,99.90
2023-05-18T06:44:56.157Z,99.90
2023-05-18T06:49:57.924Z,99.90
2023-05-18T06:55:01.285Z,99.90
2023-05-18T07:00:07.096Z,99.90
2023-05-18T07:05:09.240Z,99.90
2023-05-18T07:10:11.528Z,99.90
2023-05-18T07:15:13.269Z,99.90
2023-05-18T07:20:15.049Z,99.90
2023-05-18T07:25:16.988Z,99.90
2023-05-18T07:30:19.023Z,99.90
2023-05-18T07:35:21.984Z,99.90
2023-05-18T07:40:23.800Z,99.90
2023-05-18T07:45:25.659Z,99.90
2023-05-18T07:50:29.441Z,99.90
2023-05-18T07:55:31.982Z,99.90
2023-05-18T08:00:34.307Z,99.90
2023-05-18T08:05:36.239Z,99.90
2023-05-18T08:10:38.201Z,99.90
2023-05-18T08:15:43.103Z,99.90
2023-05-18T08:20:45.096Z,99.90
2023-05-18T08:25:46.818Z,99.90
2023-05-18T08:30:48.533Z,99.90
2023-05-18T08:35:50.813Z,99.90
2023-05-18T08:41:02.701Z,99.90
2023-05-18T08:46:18.927Z,99.90
2023-05-18T08:51:21.819Z,99.90
2023-05-18T08:56:24.736Z,99.90
2023-05-18T09:01:31.270Z,99.90
2023-05-18T09:06:35.765Z,99.90
2023-05-18T09:11:39.162Z,99.90
2023-05-18T09:16:41.021Z,99.90
2023-05-18T09:21:42.766Z,99.90
2023-05-18T09:26:44.660Z,99.90
2023-05-18T09:31:47.494Z,99.90
2023-05-18T09:36:57.714Z,99.90
2023-05-18T09:42:03.842Z,99.90
2023-05-18T09:47:12.356Z,99.90
2023-05-18T09:52:14.199Z,99.90
2023-05-18T09:57:21.859Z,99.90
2023-05-18T10:02:25.805Z,99.90
2023-05-18T10:07:27.641Z,99.90
2023-05-18T10:12:29.549Z,99.90
2023-05-18T10:17:33.992Z,99.90
2023-05-18T10:22:37.306Z,99.90
2023-05-18T10:27:40.050Z,99.90
2023-05-18T10:32:43.380Z,99.90
2023-05-18T10:37:50.308Z,99.90
2023-05-18T10:42:53.409Z,99.90
2023-05-18T10:47:57.254Z,99.90
2023-05-18T10:53:00.856Z,99.90
2023-05-18T10:58:12.242Z,99.90
2023-05-18T11:03:16.159Z,99.90
2023-05-18T11:08:27.527Z,99.90
2023-05-18T11:13:34.061Z,99.90
2023-05-18T11:18:45.790Z,99.90
2023-05-18T11:24:31.681Z,99.90
2023-05-18T11:29:42.510Z,99.90
2023-05-18T11:34:46.482Z,99.90
2023-05-18T11:40:00.341Z,99.90
2023-05-18T11:45:13.119Z,99.90
2023-05-18T11:50:17.399Z,99.90
2023-05-18T11:55:20.928Z,99.90
2023-05-18T12:00:24.850Z,99.90
2023-05-18T12:05:30.704Z,99.90
2023-05-18T12:10:36.728Z,99.50
2023-05-18T12:15:39.678Z,99.90
2023-05-18T12:20:41.436Z,99.80
2023-05-18T12:25:43.219Z,98.90
2023-05-18T12:30:45.133Z,98.30
2023-05-18T12:35:46.901Z,98.20
2023-05-18T12:40:50.362Z,96.80
2023-05-18T12:45:52.393Z,97.80
2023-05-18T12:50:55.572Z,98.10
2023-05-18T12:55:59.561Z,97.20
2023-05-18T13:01:09.353Z,96.90
2023-05-18T13:06:11.196Z,97.00
2023-05-18T13:11:15.887Z,97.60
2023-05-18T13:16:17.706Z,96.90
2023-05-18T13:21:19.538Z,96.80
2023-05-18T13:26:22.943Z,96.70
2023-05-18T13:31:25.273Z,96.20
2023-05-18T13:36:29.784Z,95.50
2023-05-18T13:41:31.718Z,96.20
2023-05-18T13:46:37.750Z,95.40
2023-05-18T13:51:39.996Z,95.10
2023-05-18T13:56:43.938Z,95.60
2023-05-18T14:01:47.601Z,95.50
2023-05-18T14:06:49.580Z,95.70
2023-05-18T14:11:53.613Z,95.60
2023-05-18T14:16:55.785Z,95.20
2023-05-18T14:21:57.577Z,95.30
2023-05-18T14:26:59.302Z,95.30
2023-05-18T14:32:01.328Z,95.80
2023-05-18T14:37:03.094Z,95.50
2023-05-18T14:42:06.215Z,95.30
2023-05-18T14:47:08.271Z,93.90
2023-05-18T14:52:10.158Z,93.20
2023-05-18T14:57:12.772Z,93.10
2023-05-18T15:02:14.647Z,93.20
2023-05-18T15:07:16.558Z,94.50
2023-05-18T15:12:19.617Z,92.50
2023-05-18T15:17:21.351Z,92.20
2023-05-18T15:22:23.155Z,92.20
2023-05-18T15:27:24.922Z,92.50
2023-05-18T15:32:29.185Z,92.50
2023-05-18T15:37:31.747Z,92.60
2023-05-18T15:42:33.975Z,93.30
2023-05-18T15:47:36.029Z,94.00
2023-05-18T15:52:37.844Z,94.60
2023-05-18T15:57:39.624Z,94.20
2023-05-18T16:02:41.449Z,93.10
2023-05-18T16:07:43.683Z,92.90
2023-05-18T16:12:45.512Z,92.80
2023-05-18T16:17:47.384Z,93.30
2023-05-18T16:22:49.266Z,94.10
2023-05-18T16:27:51.037Z,94.10
2023-05-18T16:32:52.842Z,94.10
2023-05-18T16:37:54.932Z,93.20
2023-05-18T16:42:56.708Z,93.10
2023-05-18T16:48:00.591Z,93.70
2023-05-18T16:53:02.396Z,94.50
2023-05-18T16:58:04.555Z,94.70
2023-05-18T17:03:06.572Z,94.50
2023-05-18T17:08:10.459Z,94.60
2023-05-18T17:13:12.261Z,93.90
2023-05-18T17:18:14.038Z,93.00
2023-05-18T17:23:18.658Z,93.20
2023-05-18T17:28:20.365Z,93.20
2023-05-18T17:33:22.361Z,92.80
2023-05-18T17:38:24.122Z,92.30
2023-05-18T17:43:25.816Z,92.90
2023-05-18T17:48:27.549Z,93.70
2023-05-18T17:53:29.326Z,94.20
2023-05-18T17:58:31.079Z,95.40
2023-05-18T18:03:33.687Z,96.20
2023-05-18T18:08:36.623Z,96.40
2023-05-18T18:13:38.644Z,96.40
2023-05-18T18:18:40.453Z,96.40
2023-05-18T18:23:42.304Z,96.80
2023-05-18T18:28:44.051Z,97.00
2023-05-18T18:33:50.177Z,97.70
2023-05-18T18:38:51.989Z,97.90
2023-05-18T18:43:54.695Z,98.40
2023-05-18T18:48:56.411Z,98.60
2023-05-18T18:53:58.188Z,98.90
2023-05-18T18:59:00.046Z,99.60
2023-05-18T19:04:01.789Z,99.90
2023-05-18T19:09:04.207Z,99.90
2023-05-18T19:14:06.149Z,99.90
2023-05-18T19:19:10.647Z,99.90
2023-05-18T19:24:13.031Z,99.90
2023-05-18T19:29:14.761Z,99.90
2023-05-18T19:34:16.523Z,99.90
2023-05-18T19:39:19.396Z,99.90
2023-05-18T19:44:21.728Z,99.90
2023-05-18T19:49:23.984Z,99.90
2023-05-18T19:54:25.731Z,99.90
2023-05-18T19:59:27.440Z,99.90
2023-05-18T20:04:30.288Z,99.90
2023-05-18T20:09:33.362Z,99.90
2023-05-18T20:14:36.643Z,99.90
2023-05-18T20:19:39.126Z,99.90
2023-05-18T20:24:43.470Z,99.90
2023-05-18T20:29:45.382Z,99.90
2023-05-18T20:34:48.534Z,99.90
2023-05-18T20:39:51.496Z,99.90
2023-05-18T20:44:53.417Z,99.90
2023-05-18T20:49:58.557Z,99.90
2023-05-18T20:55:00.548Z,99.90
2023-05-18T21:00:02.886Z,99.90
2023-05-18T21:05:06.529Z,99.90
2023-05-18T21:10:09.595Z,99.90
2023-05-18T21:15:11.564Z,99.90
2023-05-18T21:20:13.497Z,99.90
2023-05-18T21:25:15.597Z,99.90
2023-05-18T21:30:18.454Z,99.90
2023-05-18T21:35:20.242Z,99.90
2023-05-18T21:40:22.710Z,99.90
2023-05-18T21:45:25.468Z,99.90
2023-05-18T21:50:27.646Z,99.90
2023-05-18T21:55:33.107Z,99.90
2023-05-18T22:00:35.464Z,99.90
2023-05-18T22:05:38.733Z,99.90
2023-05-18T22:10:40.438Z,99.90
2023-05-18T22:15:42.399Z,99.90
2023-05-18T22:20:44.567Z,99.90
2023-05-18T22:25:46.861Z,99.90
2023-05-18T22:30:52.475Z,99.90
2023-05-18T22:35:54.379Z,99.90
2023-05-18T22:40:56.630Z,99.90
2023-05-18T22:45:58.885Z,99.90
2023-05-18T22:51:01.347Z,99.90
2023-05-18T22:56:03.221Z,99.90
2023-05-18T23:01:06.401Z,99.90
2023-05-18T23:06:09.134Z,99.90
2023-05-18T23:11:11.524Z,99.90
2023-05-18T23:16:13.367Z,99.90
2023-05-18T23:21:15.171Z,99.90
2023-05-18T23:26:16.951Z,99.90
2023-05-18T23:31:18.674Z,99.90
2023-05-18T23:36:21.265Z,99.90
2023-05-18T23:41:24.132Z,99.90
2023-05-18T23:46:26.505Z,99.90
2023-05-18T23:51:32.955Z,99.90
2023-05-18T23:56:35.465Z,99.90
